createdAt,value
2023-03-08T00:01:04.089Z,7.40
2023-03-08T00:04:27.727Z,7.40
2023-03-08T00:07:54.582Z,7.40
2023-03-08T00:11:18.211Z,7.30
2023-03-08T00:14:43.671Z,7.30
2023-03-08T00:18:07.694Z,7.40
2023-03-08T00:21:31.269Z,7.40
2023-03-08T00:24:55.052Z,7.40
2023-03-08T00:28:18.549Z,7.50
2023-03-08T00:31:43.479Z,7.50
2023-03-08T00:35:08.300Z,7.50
2023-03-08T00:38:33.486Z,7.50
2023-03-08T00:41:57.006Z,7.50
2023-03-08T00:45:20.419Z,7.50
2023-03-08T00:48:45.227Z,7.50
2023-03-08T00:52:09.629Z,7.50
2023-03-08T00:55:33.778Z,7.50
2023-03-08T00:58:57.235Z,7.50
2023-03-08T01:02:21.405Z,8.90
2023-03-08T01:05:49.173Z,7.50
2023-03-08T01:09:13.798Z,7.50
2023-03-08T01:12:37.699Z,7.50
2023-03-08T01:16:01.956Z,7.50
2023-03-08T01:19:25.516Z,7.50
2023-03-08T01:22:50.319Z,7.50
2023-03-08T01:26:16.733Z,7.50
2023-03-08T01:29:40.232Z,7.40
2023-03-08T01:33:03.681Z,7.50
2023-03-08T01:36:29.590Z,7.30
2023-03-08T01:39:54.408Z,7.40
2023-03-08T01:43:31.831Z,7.40
2023-03-08T01:46:55.552Z,7.20
2023-03-08T01:50:23.553Z,7.10
2023-03-08T01:53:47.718Z,7.00
2023-03-08T01:57:21.356Z,7.00
2023-03-08T02:00:45.268Z,6.90
2023-03-08T02:04:10.966Z,6.80
2023-03-08T02:07:34.647Z,6.80
2023-03-08T02:11:00.579Z,6.80
2023-03-08T02:14:27.105Z,7.00
2023-03-08T02:17:50.719Z,6.60
2023-03-08T02:21:14.179Z,6.60
2023-03-08T02:24:39.083Z,6.60
2023-03-08T02:28:04.716Z,6.50
2023-03-08T02:31:28.459Z,6.50
2023-03-08T02:34:51.911Z,6.50
2023-03-08T02:38:18.748Z,10.70
2023-03-08T02:41:43.593Z,6.50
2023-03-08T02:45:11.461Z,6.50
2023-03-08T02:48:35.210Z,6.60
2023-03-08T02:51:59.295Z,6.60
2023-03-08T02:55:23.124Z,6.60
2023-03-08T02:58:48.013Z,6.60
2023-03-08T03:02:11.495Z,6.60
2023-03-08T03:05:35.043Z,6.60
2023-03-08T03:09:02.725Z,6.70
2023-03-08T03:12:26.606Z,6.70
2023-03-08T03:15:51.557Z,6.70
2023-03-08T03:19:15.359Z,7.40
2023-03-08T03:22:38.862Z,6.70
2023-03-08T03:26:07.448Z,6.80
2023-03-08T03:29:31.332Z,6.80
2023-03-08T03:33:06.319Z,6.80
2023-03-08T03:36:30.989Z,6.80
2023-03-08T03:39:55.716Z,6.80
2023-03-08T03:43:20.074Z,6.80
2023-03-08T03:46:43.798Z,6.80
2023-03-08T03:50:12.712Z,6.90
2023-03-08T03:53:49.998Z,6.90
2023-03-08T03:57:15.271Z,6.90
2023-03-08T04:00:40.400Z,6.90
2023-03-08T04:04:15.002Z,6.90
2023-03-08T04:07:42.346Z,7.00
2023-03-08T04:11:06.607Z,7.00
2023-03-08T04:14:30.427Z,7.00
2023-03-08T04:17:54.046Z,7.00
2023-03-08T04:21:20.415Z,7.00
2023-03-08T04:24:45.339Z,7.00
2023-03-08T04:28:14.176Z,7.00
2023-03-08T04:31:38.107Z,7.00
2023-03-08T04:35:06.940Z,7.10
2023-03-08T04:38:33.672Z,7.00
2023-03-08T04:41:59.625Z,7.00
2023-03-08T04:45:27.899Z,7.00
2023-03-08T04:48:55.820Z,8.10
2023-03-08T04:52:22.146Z,7.00
2023-03-08T04:55:46.791Z,7.00
2023-03-08T04:59:11.827Z,7.10
2023-03-08T05:02:35.362Z,7.10
2023-03-08T05:06:00.142Z,7.10
2023-03-08T05:09:23.886Z,7.10
2023-03-08T05:12:49.022Z,7.10
2023-03-08T05:16:15.552Z,7.20
2023-03-08T05:19:39.216Z,7.10
2023-03-08T05:23:04.128Z,7.20
2023-03-08T05:26:33.904Z,7.20
2023-03-08T05:29:58.025Z,7.20
2023-03-08T05:33:23.415Z,7.30
2023-03-08T05:36:47.029Z,7.20
2023-03-08T05:40:12.670Z,7.20
2023-03-08T05:43:39.305Z,7.30
2023-03-08T05:47:06.014Z,7.20
2023-03-08T05:50:31.458Z,7.30
2023-03-08T05:53:55.322Z,7.30
2023-03-08T05:57:18.851Z,7.30
2023-03-08T06:00:43.544Z,7.30
2023-03-08T06:04:07.571Z,7.40
2023-03-08T06:07:36.717Z,8.00
2023-03-08T06:11:06.367Z,7.40
2023-03-08T06:14:30.312Z,7.40
2023-03-08T06:17:55.263Z,7.40
2023-03-08T06:21:22.983Z,7.40
2023-03-08T06:24:55.256Z,7.50
2023-03-08T06:28:30.058Z,7.50
2023-03-08T06:31:54.395Z,7.50
2023-03-08T06:35:19.351Z,7.60
2023-03-08T06:38:50.324Z,7.60
2023-03-08T06:42:15.118Z,7.60
2023-03-08T06:45:39.890Z,7.60
2023-03-08T06:49:04.826Z,7.60
2023-03-08T06:52:34.929Z,7.60
2023-03-08T06:56:02.968Z,7.70
2023-03-08T06:59:29.790Z,7.70
2023-03-08T07:02:53.635Z,7.70
2023-03-08T07:06:17.361Z,7.80
2023-03-08T07:09:41.054Z,7.90
2023-03-08T07:13:04.866Z,7.90
2023-03-08T07:16:29.870Z,7.90
2023-03-08T07:19:53.346Z,8.00
2023-03-08T07:23:16.798Z,8.00
2023-03-08T07:26:40.460Z,8.10
2023-03-08T07:30:04.205Z,8.10
2023-03-08T07:33:29.378Z,8.20
2023-03-08T07:36:52.997Z,8.20
2023-03-08T07:40:18.727Z,8.30
2023-03-08T07:43:42.296Z,8.40
2023-03-08T07:47:14.946Z,8.30
2023-03-08T07:50:39.797Z,8.40
2023-03-08T07:54:03.540Z,8.40
2023-03-08T07:57:27.106Z,8.40
2023-03-08T08:00:50.569Z,8.40
2023-03-08T08:04:14.114Z,8.50
2023-03-08T08:07:39.044Z,8.50
2023-03-08T08:11:03.044Z,8.50
2023-03-08T08:14:27.096Z,8.50
2023-03-08T08:17:50.596Z,8.50
2023-03-08T08:21:17.269Z,8.60
2023-03-08T08:24:42.498Z,8.60
2023-03-08T08:28:06.065Z,8.60
2023-03-08T08:31:31.309Z,8.60
2023-03-08T08:34:54.916Z,8.60
2023-03-08T08:38:18.506Z,8.70
2023-03-08T08:41:43.475Z,8.60
2023-03-08T08:45:08.527Z,8.60
2023-03-08T08:48:33.880Z,8.60
2023-03-08T08:51:57.438Z,8.70
2023-03-08T08:55:21.069Z,8.70
2023-03-08T08:58:48.051Z,8.80
2023-03-08T09:02:13.094Z,8.80
2023-03-08T09:05:42.171Z,8.80
2023-03-08T09:09:06.334Z,8.90
2023-03-08T09:12:31.115Z,8.80
2023-03-08T09:15:56.011Z,8.80
2023-03-08T09:19:19.668Z,8.90
2023-03-08T09:22:43.919Z,8.90
2023-03-08T09:26:07.627Z,8.90
2023-03-08T09:29:31.443Z,8.90
2023-03-08T09:32:56.461Z,8.90
2023-03-08T09:36:21.479Z,8.90
2023-03-08T09:39:45.176Z,8.80
2023-03-08T09:43:25.568Z,8.90
2023-03-08T09:46:58.352Z,8.90
2023-03-08T09:50:40.390Z,8.90
2023-03-08T09:54:09.325Z,9.00
2023-03-08T09:57:41.898Z,9.00
2023-03-08T10:01:29.232Z,9.10
2023-03-08T10:05:13.342Z,9.10
2023-03-08T10:08:49.731Z,9.40
2023-03-08T10:12:24.701Z,9.30
2023-03-08T10:15:55.354Z,9.40
2023-03-08T10:19:26.805Z,9.50
2023-03-08T10:23:01.078Z,9.70
2023-03-08T10:26:27.627Z,9.90
2023-03-08T10:29:54.294Z,10.00
2023-03-08T10:33:21.132Z,10.20
2023-03-08T10:36:52.478Z,10.30
2023-03-08T10:40:21.318Z,10.40
2023-03-08T10:43:51.194Z,10.50
2023-03-08T10:47:22.645Z,10.70
2023-03-08T10:50:46.261Z,11.20
2023-03-08T10:54:16.556Z,11.00
2023-03-08T10:57:45.605Z,11.30
2023-03-08T11:01:28.154Z,11.60
2023-03-08T11:04:54.549Z,13.50
2023-03-08T11:08:22.278Z,12.50
2023-03-08T11:11:47.005Z,13.00
2023-03-08T11:15:16.188Z,13.40
2023-03-08T11:19:01.544Z,13.60
2023-03-08T11:22:40.653Z,13.90
2023-03-08T11:26:20.981Z,14.10
2023-03-08T11:30:04.045Z,14.30
2023-03-08T11:34:01.086Z,14.30
2023-03-08T11:37:36.910Z,14.30
2023-03-08T11:41:15.127Z,14.40
2023-03-08T11:45:00.436Z,14.10
2023-03-08T11:49:00.217Z,14.10
2023-03-08T11:52:35.047Z,14.00
2023-03-08T11:56:21.208Z,14.00
2023-03-08T11:59:52.284Z,14.00
2023-03-08T12:03:20.550Z,14.00
2023-03-08T12:06:48.299Z,14.10
2023-03-08T12:10:22.200Z,14.00
2023-03-08T12:13:49.782Z,14.00
2023-03-08T12:17:21.655Z,14.00
2023-03-08T12:20:46.403Z,14.00
2023-03-08T12:24:36.723Z,14.10
2023-03-08T12:28:06.103Z,14.10
2023-03-08T12:31:42.520Z,14.10
2023-03-08T12:35:09.276Z,14.40
2023-03-08T12:38:41.005Z,14.30
2023-03-08T12:42:17.704Z,14.30
2023-03-08T12:45:44.203Z,14.30
2023-03-08T12:49:29.034Z,14.40
2023-03-08T12:52:53.093Z,14.30
2023-03-08T12:56:26.282Z,14.40
2023-03-08T13:00:00.817Z,14.50
2023-03-08T13:03:38.450Z,14.50
2023-03-08T13:07:29.345Z,14.60
2023-03-08T13:11:05.030Z,14.80
2023-03-08T13:14:41.092Z,14.80
2023-03-08T13:18:16.791Z,14.90
2023-03-08T13:21:49.546Z,14.90
2023-03-08T13:25:30.457Z,14.90
2023-03-08T13:28:57.173Z,14.90
2023-03-08T13:32:24.560Z,14.90
2023-03-08T13:35:59.631Z,15.00
2023-03-08T13:39:25.629Z,15.10
2023-03-08T13:42:57.308Z,15.50
2023-03-08T13:46:24.148Z,15.30
2023-03-08T13:49:51.825Z,15.40
2023-03-08T13:53:22.279Z,15.60
2023-03-08T13:56:45.947Z,15.60
2023-03-08T14:00:28.776Z,15.70
2023-03-08T14:03:55.440Z,15.70
2023-03-08T14:07:25.635Z,15.80
2023-03-08T14:10:56.625Z,15.80
2023-03-08T14:14:27.865Z,15.90
2023-03-08T14:17:51.571Z,15.90
2023-03-08T14:21:18.077Z,16.00
2023-03-08T14:24:44.621Z,16.00
2023-03-08T14:32:06.642Z,16.10
2023-03-08T14:35:34.399Z,16.10
2023-03-08T14:38:59.966Z,16.10
2023-03-08T14:42:28.791Z,16.00
2023-03-08T14:45:56.207Z,16.00
2023-03-08T14:49:24.841Z,15.90
2023-03-08T14:52:51.368Z,15.90
2023-03-08T14:56:17.656Z,15.90
2023-03-08T14:59:42.340Z,15.90
2023-03-08T15:03:06.586Z,15.80
2023-03-08T15:06:35.368Z,15.80
2023-03-08T15:10:03.282Z,15.70
2023-03-08T15:13:26.977Z,15.70
2023-03-08T15:16:51.072Z,15.60
2023-03-08T15:20:16.439Z,15.60
2023-03-08T15:23:42.880Z,15.60
2023-03-08T15:27:06.525Z,15.60
2023-03-08T15:30:31.820Z,15.60
2023-03-08T15:33:55.253Z,15.70
2023-03-08T15:37:18.685Z,15.60
2023-03-08T15:40:44.675Z,15.60
2023-03-08T15:44:08.517Z,15.50
2023-03-08T15:47:31.937Z,15.40
2023-03-08T15:50:58.837Z,15.30
2023-03-08T15:54:22.867Z,15.20
2023-03-08T15:57:48.429Z,15.20
2023-03-08T16:01:12.644Z,15.20
2023-03-08T16:04:36.274Z,15.10
2023-03-08T16:08:02.748Z,15.10
2023-03-08T16:11:27.428Z,15.10
2023-03-08T16:14:54.842Z,15.00
2023-03-08T16:18:18.367Z,15.00
2023-03-08T16:21:41.966Z,15.00
2023-03-08T16:25:06.934Z,14.90
2023-03-08T16:28:30.465Z,14.90
2023-03-08T16:31:55.232Z,15.20
2023-03-08T16:35:19.124Z,14.90
2023-03-08T16:38:43.007Z,14.90
2023-03-08T16:42:06.691Z,14.80
2023-03-08T16:45:30.266Z,14.80
2023-03-08T16:48:56.660Z,14.70
2023-03-08T16:52:21.047Z,14.70
2023-03-08T16:55:44.693Z,14.60
2023-03-08T16:59:08.570Z,14.60
2023-03-08T17:02:32.022Z,14.50
2023-03-08T17:05:57.425Z,14.40
2023-03-08T17:09:21.290Z,14.40
2023-03-08T17:12:44.758Z,14.20
2023-03-08T17:16:12.329Z,14.20
2023-03-08T17:19:35.877Z,14.10
2023-03-08T17:23:00.860Z,14.00
2023-03-08T17:26:25.083Z,14.30
2023-03-08T17:29:48.690Z,13.90
2023-03-08T17:33:13.687Z,13.90
2023-03-08T17:36:37.388Z,13.90
2023-03-08T17:40:02.250Z,13.90
2023-03-08T17:43:26.552Z,13.90
2023-03-08T17:46:50.006Z,14.00
2023-03-08T17:50:14.052Z,14.00
2023-03-08T17:53:38.610Z,14.00
2023-03-08T17:57:03.655Z,14.00
2023-03-08T18:00:27.325Z,13.90
2023-03-08T18:03:51.562Z,13.90
2023-03-08T18:07:20.981Z,14.00
2023-03-08T18:10:44.695Z,13.80
2023-03-08T18:14:12.129Z,13.80
2023-03-08T18:17:36.079Z,13.80
2023-03-08T18:21:12.170Z,13.80
2023-03-08T18:24:37.163Z,13.80
2023-03-08T18:28:00.784Z,13.90
2023-03-08T18:31:27.551Z,14.00
2023-03-08T18:34:51.820Z,13.80
2023-03-08T18:38:16.180Z,13.80
2023-03-08T18:41:40.725Z,13.70
2023-03-08T18:45:06.943Z,13.70
2023-03-08T18:48:31.832Z,13.70
2023-03-08T18:51:56.970Z,13.70
2023-03-08T18:55:20.443Z,13.70
2023-03-08T18:58:44.242Z,13.70
2023-03-08T19:02:11.098Z,13.60
2023-03-08T19:05:37.920Z,13.60
2023-03-08T19:09:02.058Z,13.60
2023-03-08T19:12:25.751Z,13.60
2023-03-08T19:15:49.627Z,13.60
2023-03-08T19:19:15.827Z,13.60
2023-03-08T19:22:40.722Z,13.60
2023-03-08T19:26:31.071Z,13.60
2023-03-08T19:29:54.483Z,13.60
2023-03-08T19:33:30.605Z,13.50
2023-03-08T19:36:56.712Z,13.50
2023-03-08T19:40:22.414Z,13.50
2023-03-08T19:43:46.016Z,13.50
2023-03-08T19:47:10.247Z,13.40
2023-03-08T19:50:33.716Z,13.40
2023-03-08T19:53:57.538Z,13.30
2023-03-08T19:57:22.365Z,13.30
2023-03-08T20:00:46.410Z,13.30
2023-03-08T20:04:11.325Z,13.20
2023-03-08T20:07:37.356Z,13.20
2023-03-08T20:11:00.926Z,13.30
2023-03-08T20:14:27.115Z,13.10
2023-03-08T20:17:50.763Z,13.10
2023-03-08T20:21:14.618Z,13.10
2023-03-08T20:24:38.290Z,13.10
2023-03-08T20:28:02.974Z,13.10
2023-03-08T20:31:30.569Z,13.10
2023-03-08T20:34:54.091Z,13.10
2023-03-08T20:38:17.531Z,13.20
2023-03-08T20:41:41.047Z,13.20
2023-03-08T20:45:05.558Z,13.20
2023-03-08T20:48:30.895Z,13.40
2023-03-08T20:51:55.101Z,13.20
2023-03-08T20:55:18.796Z,13.50
2023-03-08T20:58:42.966Z,13.20
2023-03-08T21:02:06.670Z,13.20
2023-03-08T21:05:35.881Z,13.30
2023-03-08T21:09:00.844Z,13.30
2023-03-08T21:12:24.447Z,13.30
2023-03-08T21:15:48.571Z,13.30
2023-03-08T21:19:12.181Z,13.30
2023-03-08T21:22:38.272Z,13.20
2023-03-08T21:26:02.318Z,13.20
2023-03-08T21:29:28.124Z,13.20
2023-03-08T21:32:51.601Z,13.20
2023-03-08T21:36:16.126Z,13.20
2023-03-08T21:39:41.321Z,13.20
2023-03-08T21:43:05.201Z,13.20
2023-03-08T21:46:28.933Z,13.20
2023-03-08T21:49:52.473Z,13.60
2023-03-08T21:53:16.258Z,13.20
2023-03-08T21:56:41.270Z,13.20
2023-03-08T22:00:06.125Z,13.10
2023-03-08T22:03:35.889Z,13.10
2023-03-08T22:06:59.484Z,13.10
2023-03-08T22:10:22.948Z,13.10
2023-03-08T22:13:51.287Z,13.00
2023-03-08T22:17:14.833Z,13.00
2023-03-08T22:20:38.406Z,13.00
2023-03-08T22:24:03.679Z,13.00
2023-03-08T22:27:28.105Z,12.90
2023-03-08T22:30:52.960Z,12.80
2023-03-08T22:34:16.414Z,12.80
2023-03-08T22:37:40.925Z,12.70
2023-03-08T22:41:12.529Z,12.70
2023-03-08T22:44:36.430Z,12.70
2023-03-08T22:48:01.543Z,12.70
2023-03-08T22:51:27.525Z,12.70
2023-03-08T22:54:50.956Z,12.70
2023-03-08T22:58:14.487Z,12.70
2023-03-08T23:01:38.799Z,12.80
2023-03-08T23:05:03.612Z,13.00
2023-03-08T23:08:27.219Z,12.80
2023-03-08T23:11:51.032Z,12.80
2023-03-08T23:15:14.854Z,12.80
2023-03-08T23:18:38.323Z,12.80
2023-03-08T23:22:03.882Z,12.80
2023-03-08T23:25:27.443Z,12.80
2023-03-08T23:28:51.411Z,12.80
2023-03-08T23:32:14.978Z,12.80
2023-03-08T23:35:38.533Z,12.70
2023-03-08T23:39:04.134Z,12.70
2023-03-08T23:42:27.561Z,12.70
2023-03-08T23:45:51.420Z,12.70
2023-03-08T23:49:16.924Z,12.70
2023-03-08T23:52:40.354Z,12.70
2023-03-08T23:56:06.917Z,12.70
2023-03-08T23:59:30.610Z,12.70
